Time;durP1;ratioP1;P1;durP2;ratioP2;P2;SDS_P1;SDS_P2;PMS_P1;PMS_P2;Temp;Humidity;BMP_temperature;BMP_pressure;BME280_temperature;BME280_humidity;BME280_pressure;Samples;Min_cycle;Max_cycle;Signal;HPM_P1;HPM_P2
2022/06/29 00:00:27;;;;;;;3.42;0.40;;;18.60;82.30;;;;;;5030139;28;20044;-77
2022/06/29 00:02:56;;;;;;;2.35;0.50;;;18.60;82.40;;;;;;5030461;28;20496;-78
2022/06/29 00:05:24;;;;;;;2.60;0.50;;;18.60;82.30;;;;;;5036523;28;20483;-77
2022/06/29 00:07:55;;;;;;;2.50;0.40;;;18.60;83.00;;;;;;5018716;28;20056;-79
2022/06/29 00:10:25;;;;;;;2.78;0.30;;;18.60;82.60;;;;;;5033369;28;20380;-80
2022/06/29 00:12:53;;;;;;;2.78;0.38;;;18.60;82.60;;;;;;5033942;28;20599;-76
2022/06/29 00:15:20;;;;;;;1.58;0.40;;;18.60;82.60;;;;;;5019507;28;20496;-78
2022/06/29 00:17:48;;;;;;;2.25;0.60;;;18.60;82.60;;;;;;5033693;28;20564;-77
2022/06/29 00:20:15;;;;;;;1.75;0.40;;;18.60;82.90;;;;;;5013469;28;20037;-77
2022/06/29 00:22:43;;;;;;;3.10;0.40;;;18.60;83.00;;;;;;5032988;28;20040;-78
2022/06/29 00:25:12;;;;;;;2.42;0.40;;;18.60;83.20;;;;;;5015913;28;20044;-84
2022/06/29 00:27:47;;;;;;;2.92;0.40;;;18.50;83.60;;;;;;5033776;28;20037;-79
2022/06/29 00:30:14;;;;;;;3.38;0.40;;;18.50;83.70;;;;;;5016182;28;20044;-80
2022/06/29 00:32:41;;;;;;;2.78;0.32;;;18.40;83.90;;;;;;5034391;28;20028;-79
2022/06/29 00:35:08;;;;;;;2.72;0.40;;;18.40;84.10;;;;;;5036260;28;20025;-77
2022/06/29 00:37:35;;;;;;;2.47;0.40;;;18.40;84.40;;;;;;5003524;28;20037;-80
2022/06/29 00:40:08;;;;;;;2.35;0.55;;;18.40;84.60;;;;;;5016496;28;20045;-80
2022/06/29 00:42:34;;;;;;;1.30;0.50;;;18.30;84.80;;;;;;5019538;28;20372;-79
2022/06/29 00:45:01;;;;;;;1.48;0.50;;;18.30;85.80;;;;;;5038379;28;20037;-78
2022/06/29 00:47:30;;;;;;;1.77;0.40;;;18.30;85.20;;;;;;5039575;28;20036;-79
2022/06/29 00:50:00;;;;;;;1.77;0.52;;;18.20;85.20;;;;;;5034471;28;20453;-79
2022/06/29 00:52:32;;;;;;;3.63;0.40;;;18.20;85.40;;;;;;5017830;28;20569;-78
2022/06/29 00:55:06;;;;;;;1.33;0.40;;;18.20;85.70;;;;;;5023083;28;20099;-78
2022/06/29 00:57:42;;;;;;;2.17;0.30;;;18.20;86.00;;;;;;5038002;28;20036;-79
2022/06/29 01:00:12;;;;;;;1.02;0.30;;;18.10;86.20;;;;;;5020133;28;20067;-78
2022/06/29 01:02:39;;;;;;;3.63;0.50;;;18.10;86.40;;;;;;5019273;28;20037;-79
2022/06/29 01:05:05;;;;;;;1.85;0.38;;;18.00;86.50;;;;;;5024204;28;20041;-79
2022/06/29 01:07:33;;;;;;;2.08;0.40;;;18.00;86.70;;;;;;5022335;28;20037;-81
2022/06/29 01:10:00;;;;;;;2.05;0.60;;;18.00;87.10;;;;;;5005180;28;20039;-79
2022/06/29 01:12:27;;;;;;;1.77;0.60;;;17.90;87.50;;;;;;5008256;28;20059;-79
2022/06/29 01:14:54;;;;;;;1.70;0.50;;;17.90;87.80;;;;;;5007900;28;20613;-82
2022/06/29 01:17:21;;;;;;;1.55;0.40;;;17.90;87.80;;;;;;5007495;28;20044;-81
2022/06/29 01:19:48;;;;;;;2.47;0.50;;;17.80;88.00;;;;;;5035764;28;20036;-81
2022/06/29 01:22:17;;;;;;;1.00;0.30;;;17.80;88.30;;;;;;5024735;28;20033;-82
2022/06/29 01:24:45;;;;;;;1.60;0.40;;;17.70;88.40;;;;;;5007456;28;20037;-83
2022/06/29 01:27:13;;;;;;;1.83;0.40;;;17.70;89.10;;;;;;5024101;28;20056;-82
2022/06/29 01:29:41;;;;;;;1.40;0.40;;;17.60;89.30;;;;;;5003303;28;20685;-82
2022/06/29 01:32:08;;;;;;;1.20;0.30;;;17.60;89.30;;;;;;5022420;28;20407;-80
2022/06/29 01:34:35;;;;;;;1.85;0.50;;;17.60;89.50;;;;;;5005930;28;20028;-81
2022/06/29 01:37:03;;;;;;;1.85;0.50;;;17.50;89.90;;;;;;5006686;28;20045;-81
2022/06/29 01:39:30;;;;;;;2.25;0.47;;;17.50;90.00;;;;;;5021191;28;20504;-82
2022/06/29 01:41:57;;;;;;;1.58;0.32;;;17.50;90.10;;;;;;5038835;28;20543;-81
2022/06/29 01:44:23;;;;;;;1.88;0.47;;;17.50;90.10;;;;;;5037566;28;20047;-82
2022/06/29 01:46:50;;;;;;;1.50;0.50;;;17.50;90.20;;;;;;5008304;28;20522;-81
2022/06/29 01:49:17;;;;;;;0.88;0.50;;;17.50;90.30;;;;;;5004549;28;20029;-79
2022/06/29 01:51:43;;;;;;;3.28;0.50;;;17.40;90.40;;;;;;5022073;28;20488;-79
2022/06/29 01:54:09;;;;;;;2.33;0.50;;;17.50;90.60;;;;;;5005909;28;20029;-78
2022/06/29 01:56:36;;;;;;;1.45;0.50;;;17.40;90.70;;;;;;4990024;28;20037;-78
2022/06/29 01:59:04;;;;;;;2.50;0.45;;;17.40;90.70;;;;;;5004816;28;20041;-78
2022/06/29 02:01:35;;;;;;;2.08;0.40;;;17.30;90.80;;;;;;5038400;28;20024;-79
2022/06/29 02:04:02;;;;;;;1.15;0.40;;;17.30;90.80;;;;;;5039197;28;20044;-79
2022/06/29 02:06:28;;;;;;;1.15;0.45;;;17.30;91.00;;;;;;5006760;28;20049;-78
2022/06/29 02:08:55;;;;;;;1.17;0.40;;;17.20;91.00;;;;;;5005187;28;20041;-78
2022/06/29 02:11:23;;;;;;;1.42;0.50;;;17.20;91.10;;;;;;5006093;28;20029;-79
2022/06/29 02:13:50;;;;;;;0.88;0.40;;;17.20;91.20;;;;;;5038598;28;20040;-78
2022/06/29 02:16:16;;;;;;;1.63;0.35;;;17.10;91.30;;;;;;5022712;28;20511;-79
2022/06/29 02:18:43;;;;;;;3.85;0.50;;;17.10;91.50;;;;;;5003128;28;20059;-78
2022/06/29 02:21:10;;;;;;;3.55;0.50;;;17.10;91.60;;;;;;5003811;28;20489;-78
2022/06/29 02:23:36;;;;;;;1.42;0.40;;;17.00;91.70;;;;;;5021149;28;20033;-79
2022/06/29 02:26:03;;;;;;;2.33;0.45;;;17.00;91.80;;;;;;5005827;28;21263;-78
2022/06/29 02:28:29;;;;;;;2.80;0.55;;;17.00;91.90;;;;;;4990703;28;20044;-79
2022/06/29 02:36:26;;;;;;;0.75;0.40;;;16.90;92.40;;;;;;5010184;28;20037;-79
2022/06/29 02:38:53;;;;;;;2.20;0.50;;;16.80;92.40;;;;;;5036447;28;20052;-79
2022/06/29 02:41:19;;;;;;;1.95;0.50;;;16.80;92.50;;;;;;5022198;28;20025;-79
2022/06/29 02:43:46;;;;;;;1.35;0.40;;;16.80;92.80;;;;;;5005463;28;20025;-79
2022/06/29 02:46:13;;;;;;;2.72;0.60;;;16.70;92.90;;;;;;5005340;28;20369;-79
2022/06/29 02:48:39;;;;;;;1.90;0.50;;;16.70;93.20;;;;;;5021243;28;20037;-78
2022/06/29 02:51:06;;;;;;;1.38;0.60;;;16.70;93.30;;;;;;5005933;28;20040;-79
2022/06/29 02:53:32;;;;;;;2.60;0.60;;;16.70;93.40;;;;;;5004740;28;20396;-79
2022/06/29 02:55:58;;;;;;;1.20;0.43;;;16.60;93.60;;;;;;4993184;28;20077;-79
2022/06/29 02:58:25;;;;;;;1.33;0.40;;;16.60;93.80;;;;;;5004914;28;20495;-78
2022/06/29 03:00:51;;;;;;;1.30;0.60;;;16.60;93.90;;;;;;5005523;28;20650;-79
2022/06/29 03:03:18;;;;;;;0.70;0.40;;;16.50;94.00;;;;;;5036930;28;20484;-79
2022/06/29 03:05:44;;;;;;;1.73;0.47;;;16.50;94.20;;;;;;5030332;28;20024;-79
2022/06/29 03:08:11;;;;;;;2.05;0.40;;;16.50;94.20;;;;;;5023654;28;20041;-79
2022/06/29 03:10:37;;;;;;;1.48;0.50;;;16.40;94.60;;;;;;5006802;28;20049;-79
2022/06/29 03:13:04;;;;;;;3.20;0.50;;;16.40;94.50;;;;;;5003569;28;20029;-79
2022/06/29 03:15:30;;;;;;;1.00;0.50;;;16.30;94.70;;;;;;5018953;28;20036;-78
2022/06/29 03:17:56;;;;;;;2.38;0.40;;;16.30;94.90;;;;;;5005066;28;20037;-78
2022/06/29 03:20:23;;;;;;;1.05;0.40;;;16.30;95.00;;;;;;5002232;28;20041;-82
2022/06/29 03:22:50;;;;;;;1.23;0.55;;;16.30;95.20;;;;;;5021895;28;20051;-82
2022/06/29 03:25:17;;;;;;;2.83;0.32;;;16.30;95.30;;;;;;4990775;28;20045;-79
2022/06/29 03:27:44;;;;;;;1.50;0.40;;;16.20;95.40;;;;;;5020784;28;20044;-79
2022/06/29 03:30:11;;;;;;;1.35;0.50;;;16.20;95.60;;;;;;5002110;28;20515;-79
2022/06/29 03:32:40;;;;;;;1.17;0.50;;;16.20;95.70;;;;;;5002692;28;20048;-78
2022/06/29 03:35:09;;;;;;;0.93;0.40;;;16.20;95.90;;;;;;5003976;28;20040;-78
2022/06/29 03:37:35;;;;;;;3.55;0.50;;;16.10;96.10;;;;;;5039163;28;20033;-78
2022/06/29 03:40:02;;;;;;;0.85;0.50;;;16.10;96.30;;;;;;5033949;28;20037;-79
2022/06/29 03:42:29;;;;;;;1.17;0.50;;;16.10;96.40;;;;;;5033000;28;20021;-79
2022/06/29 03:44:55;;;;;;;3.00;0.90;;;16.10;96.50;;;;;;5018506;28;20488;-79
2022/06/29 03:47:23;;;;;;;2.55;0.40;;;16.10;96.70;;;;;;5000663;28;20472;-79
2022/06/29 03:49:49;;;;;;;1.45;0.50;;;16.10;96.90;;;;;;5000975;28;20036;-79
2022/06/29 03:52:15;;;;;;;1.33;0.40;;;16.10;97.00;;;;;;5020237;28;20032;-79
2022/06/29 03:54:42;;;;;;;1.60;0.50;;;16.10;97.10;;;;;;4989006;28;20310;-79
2022/06/29 03:57:08;;;;;;;1.77;0.60;;;16.10;97.30;;;;;;5006560;28;20029;-78
2022/06/29 03:59:35;;;;;;;2.10;0.60;;;16.10;97.40;;;;;;5002615;28;20025;-78
2022/06/29 04:02:01;;;;;;;2.70;0.85;;;16.10;97.50;;;;;;5020442;28;20401;-78
2022/06/29 04:04:27;;;;;;;0.88;0.47;;;16.10;97.80;;;;;;5003923;28;20867;-78
2022/06/29 04:06:54;;;;;;;1.60;0.60;;;16.20;97.70;;;;;;5021085;28;20053;-78
2022/06/29 04:09:23;;;;;;;1.27;0.52;;;16.20;97.80;;;;;;5020587;28;20044;-79
2022/06/29 04:11:49;;;;;;;1.35;0.60;;;16.20;97.90;;;;;;5020992;28;20392;-79
2022/06/29 04:14:16;;;;;;;2.45;0.80;;;16.30;98.00;;;;;;5003471;28;20056;-78
2022/06/29 04:16:43;;;;;;;1.95;0.90;;;16.30;98.20;;;;;;5006850;28;20048;-78
2022/06/29 04:19:09;;;;;;;1.63;0.73;;;16.30;98.40;;;;;;4993696;28;20120;-81
2022/06/29 04:21:36;;;;;;;1.98;0.80;;;16.30;98.50;;;;;;5008086;28;20036;-81
2022/06/29 04:24:03;;;;;;;1.50;0.70;;;16.40;98.60;;;;;;5025286;28;20028;-78
2022/06/29 04:26:29;;;;;;;2.72;0.88;;;16.50;98.70;;;;;;5026230;28;20048;-78
2022/06/29 04:28:56;;;;;;;1.45;0.70;;;16.60;98.90;;;;;;5022984;28;20043;-79
2022/06/29 04:31:22;;;;;;;1.92;0.73;;;16.60;99.20;;;;;;5008312;28;20021;-79
2022/06/29 04:33:49;;;;;;;2.22;0.70;;;16.70;98.90;;;;;;5025707;28;20349;-79
2022/06/29 04:36:15;;;;;;;2.28;0.75;;;16.80;98.90;;;;;;5007213;28;20044;-76
2022/06/29 04:38:42;;;;;;;1.45;0.60;;;16.90;99.00;;;;;;4989515;28;20535;-81
2022/06/29 04:41:13;;;;;;;2.95;0.70;;;17.00;98.90;;;;;;5004814;28;20025;-77
2022/06/29 04:43:39;;;;;;;2.67;0.80;;;17.10;98.90;;;;;;5019074;28;20041;-78
2022/06/29 04:46:21;;;;;;;1.95;0.77;;;17.20;99.00;;;;;;5020266;28;20037;-79
2022/06/29 04:48:56;;;;;;;2.70;0.60;;;17.30;99.00;;;;;;5006380;28;20029;-78
2022/06/29 04:51:24;;;;;;;2.90;0.88;;;17.40;99.00;;;;;;5035346;28;20456;-78
2022/06/29 04:53:54;;;;;;;2.13;0.80;;;17.50;99.20;;;;;;5020726;28;20396;-79
2022/06/29 04:56:22;;;;;;;2.22;0.63;;;17.60;98.90;;;;;;5024532;28;20033;-81
2022/06/29 04:58:51;;;;;;;1.45;0.60;;;17.70;98.90;;;;;;5005120;28;20033;-81
2022/06/29 05:01:18;;;;;;;1.02;0.55;;;17.80;98.80;;;;;;5005113;28;20037;-82
2022/06/29 05:03:44;;;;;;;1.90;1.05;;;18.00;99.00;;;;;;5004929;28;20025;-82
2022/06/29 05:06:11;;;;;;;2.13;1.00;;;18.10;98.60;;;;;;5006587;28;20060;-80
2022/06/29 05:08:37;;;;;;;1.23;0.70;;;18.10;98.50;;;;;;4989832;28;20040;-80
2022/06/29 05:11:04;;;;;;;1.45;0.57;;;18.30;98.50;;;;;;5003946;28;20048;-80
2022/06/29 05:13:31;;;;;;;3.08;0.70;;;18.40;98.40;;;;;;5003332;28;20041;-80
2022/06/29 05:15:57;;;;;;;1.27;0.52;;;18.60;98.20;;;;;;5003976;28;20041;-78
2022/06/29 05:18:28;;;;;;;2.63;0.60;;;18.70;98.10;;;;;;5020985;28;20032;-79
2022/06/29 05:20:55;;;;;;;1.00;0.60;;;18.90;98.00;;;;;;5017445;28;20037;-77
2022/06/29 05:23:21;;;;;;;2.75;0.70;;;19.00;97.90;;;;;;5005144;28;20033;-79
2022/06/29 05:25:48;;;;;;;1.25;0.70;;;19.10;97.80;;;;;;5038302;28;20597;-81
2022/06/29 05:28:14;;;;;;;3.80;0.70;;;19.30;97.80;;;;;;5019502;28;20061;-81
2022/06/29 05:30:40;;;;;;;3.00;1.83;;;19.40;97.60;;;;;;5001499;28;20041;-79
2022/06/29 05:33:07;;;;;;;2.20;0.77;;;19.50;97.20;;;;;;5001705;28;20049;-80
2022/06/29 05:35:33;;;;;;;2.47;0.80;;;19.60;97.10;;;;;;5022017;28;20120;-80
2022/06/29 05:38:03;;;;;;;1.85;0.98;;;19.80;97.10;;;;;;5008104;28;20044;-80
2022/06/29 05:40:30;;;;;;;1.73;0.73;;;19.90;96.80;;;;;;5004315;28;20082;-79
2022/06/29 05:43:00;;;;;;;1.45;0.50;;;20.00;96.60;;;;;;5037238;28;20025;-80
2022/06/29 05:45:27;;;;;;;2.42;0.73;;;20.10;96.50;;;;;;5039821;28;20401;-80
2022/06/29 05:47:54;;;;;;;2.28;0.70;;;20.20;96.30;;;;;;5007981;28;20049;-79
2022/06/29 05:50:22;;;;;;;2.45;0.70;;;20.40;96.20;;;;;;5035597;28;20045;-83
2022/06/29 05:52:49;;;;;;;1.40;0.60;;;20.50;96.00;;;;;;5020457;28;20032;-80
2022/06/29 05:55:16;;;;;;;1.00;0.60;;;20.70;95.80;;;;;;5004369;28;21041;-80
2022/06/29 05:57:42;;;;;;;2.58;0.70;;;20.80;95.70;;;;;;4986659;28;20056;-80
2022/06/29 06:00:10;;;;;;;1.63;0.60;;;21.00;95.50;;;;;;5015996;28;20025;-81
2022/06/29 06:02:39;;;;;;;1.67;0.68;;;21.10;95.20;;;;;;5001766;28;20032;-80
2022/06/29 06:05:07;;;;;;;1.58;0.50;;;21.40;94.90;;;;;;5002535;28;20665;-80
2022/06/29 06:07:33;;;;;;;2.17;0.82;;;21.70;94.30;;;;;;5001966;28;20029;-80
2022/06/29 06:10:00;;;;;;;3.03;0.80;;;22.00;93.60;;;;;;5015609;28;20433;-80
2022/06/29 06:12:28;;;;;;;1.58;0.63;;;22.20;93.30;;;;;;5001697;28;20049;-81
2022/06/29 06:14:57;;;;;;;1.40;0.70;;;22.30;93.00;;;;;;5018342;28;20536;-81
2022/06/29 06:17:26;;;;;;;1.52;0.60;;;22.50;92.90;;;;;;5000477;28;20037;-80
2022/06/29 06:19:55;;;;;;;2.67;0.80;;;22.60;92.60;;;;;;5014195;28;20485;-81
2022/06/29 06:22:22;;;;;;;2.40;0.93;;;22.70;92.30;;;;;;5033614;28;20060;-80
2022/06/29 06:24:48;;;;;;;1.55;0.80;;;22.80;92.10;;;;;;5030770;28;20036;-80
2022/06/29 06:27:17;;;;;;;2.10;0.70;;;23.00;92.10;;;;;;5035397;28;20043;-81
2022/06/29 06:29:45;;;;;;;1.95;0.70;;;23.30;91.70;;;;;;5000349;28;20025;-80
2022/06/29 06:32:12;;;;;;;1.77;0.52;;;23.70;91.20;;;;;;5001802;28;20044;-80
2022/06/29 06:34:38;;;;;;;1.85;0.70;;;23.90;90.70;;;;;;4987518;28;20045;-80
2022/06/29 06:37:05;;;;;;;2.15;0.93;;;24.00;90.50;;;;;;5033953;28;20114;-80
2022/06/29 06:39:31;;;;;;;2.72;1.02;;;24.00;90.20;;;;;;4997028;28;20068;-81
2022/06/29 06:41:58;;;;;;;2.40;0.90;;;24.00;89.60;;;;;;5000268;28;20040;-81
2022/06/29 06:44:24;;;;;;;1.42;0.70;;;24.00;89.40;;;;;;5000645;28;20029;-80
2022/06/29 06:46:51;;;;;;;1.60;0.70;;;23.90;89.40;;;;;;5001259;28;20036;-81
2022/06/29 06:49:23;;;;;;;3.55;0.77;;;23.80;89.10;;;;;;4998468;28;20551;-80
2022/06/29 06:51:52;;;;;;;2.33;0.70;;;23.80;89.10;;;;;;5033914;28;20024;-80
2022/06/29 06:54:19;;;;;;;2.67;1.00;;;23.90;89.20;;;;;;5000059;28;20063;-81
2022/06/29 06:56:45;;;;;;;1.90;1.05;;;23.90;88.90;;;;;;5019516;28;20052;-81
2022/06/29 06:59:12;;;;;;;3.22;0.93;;;24.00;88.20;;;;;;4987101;28;20041;-79
2022/06/29 07:01:38;;;;;;;1.80;0.80;;;24.00;87.60;;;;;;5031876;28;20037;-80
2022/06/29 07:04:05;;;;;;;5.53;1.33;;;23.90;87.70;;;;;;5015918;28;21018;-83
2022/06/29 07:06:32;;;;;;;2.83;0.90;;;23.80;88.10;;;;;;4999748;28;20044;-81
2022/06/29 07:08:59;;;;;;;2.35;0.80;;;23.60;88.50;;;;;;5014998;28;20476;-81
2022/06/29 07:11:25;;;;;;;3.90;0.80;;;23.30;89.20;;;;;;5000562;28;20037;-81
2022/06/29 07:13:51;;;;;;;3.47;0.98;;;23.10;89.80;;;;;;4996797;28;20051;-81
2022/06/29 07:16:18;;;;;;;1.83;0.60;;;22.80;90.20;;;;;;5001211;28;20029;-83
2022/06/29 07:18:44;;;;;;;4.13;1.27;;;22.60;90.50;;;;;;4984970;28;20037;-78
2022/06/29 07:21:11;;;;;;;5.57;1.00;;;22.40;90.80;;;;;;5015816;28;20025;-78
2022/06/29 07:23:38;;;;;;;4.65;1.20;;;22.30;91.10;;;;;;4998639;28;21173;-79
2022/06/29 07:26:05;;;;;;;3.33;1.35;;;22.10;91.30;;;;;;5000554;28;20037;-78
2022/06/29 07:28:32;;;;;;;2.88;0.90;;;22.00;91.50;;;;;;5000825;28;20044;-77
2022/06/29 07:30:58;;;;;;;2.17;0.80;;;22.00;91.70;;;;;;4996278;28;20567;-79
2022/06/29 07:33:25;;;;;;;1.77;0.80;;;22.10;91.80;;;;;;5001361;28;20040;-78
2022/06/29 07:35:51;;;;;;;4.10;1.02;;;22.30;91.80;;;;;;5032345;28;20036;-78
2022/06/29 07:38:19;;;;;;;4.18;1.00;;;22.70;91.70;;;;;;5001285;28;20049;-78
2022/06/29 07:40:45;;;;;;;2.30;1.15;;;23.00;91.20;;;;;;5014132;28;20041;-79
2022/06/29 07:43:12;;;;;;;2.20;0.93;;;23.30;90.90;;;;;;4982653;28;20029;-79
2022/06/29 07:45:39;;;;;;;2.28;1.33;;;23.60;90.80;;;;;;4999578;28;20056;-79
2022/06/29 07:48:05;;;;;;;3.42;0.80;;;23.90;90.50;;;;;;5000817;28;20630;-78
2022/06/29 07:50:32;;;;;;;3.90;0.93;;;24.10;90.20;;;;;;5014601;28;20033;-79
2022/06/29 07:52:58;;;;;;;1.83;0.70;;;24.30;89.60;;;;;;4995811;28;20037;-79
2022/06/29 07:55:25;;;;;;;1.45;0.50;;;24.40;88.90;;;;;;4998257;28;20945;-80
2022/06/29 07:57:56;;;;;;;3.40;0.85;;;24.60;88.40;;;;;;5000400;28;20029;-79
2022/06/29 08:00:26;;;;;;;3.28;1.33;;;24.80;87.90;;;;;;5028353;28;20021;-79
2022/06/29 08:02:52;;;;;;;1.70;0.70;;;25.00;87.60;;;;;;5015101;28;20024;-78
2022/06/29 08:05:20;;;;;;;3.15;0.77;;;25.20;87.10;;;;;;5031436;28;20048;-78
2022/06/29 08:07:48;;;;;;;2.00;0.70;;;25.40;86.90;;;;;;5015179;28;20041;-79
2022/06/29 08:10:15;;;;;;;2.40;0.70;;;25.60;86.30;;;;;;5028780;28;20032;-79
2022/06/29 08:12:42;;;;;;;2.97;0.93;;;25.80;85.40;;;;;;4999677;28;20016;-79
2022/06/29 08:15:10;;;;;;;2.17;0.90;;;25.90;84.60;;;;;;5032302;28;20518;-79
2022/06/29 08:17:36;;;;;;;1.67;0.80;;;26.00;84.00;;;;;;5033010;28;20025;-79
2022/06/29 08:20:05;;;;;;;3.78;0.90;;;26.10;83.80;;;;;;4995871;28;20083;-79
2022/06/29 08:22:32;;;;;;;1.85;0.70;;;26.30;83.30;;;;;;5015241;28;20033;-79
2022/06/29 08:25:01;;;;;;;2.33;0.93;;;26.50;82.40;;;;;;5032594;28;20036;-78
2022/06/29 08:27:28;;;;;;;3.55;0.80;;;26.60;82.00;;;;;;5030272;28;20025;-78
2022/06/29 08:29:54;;;;;;;1.77;0.70;;;26.60;81.60;;;;;;5028980;28;20013;-78
2022/06/29 08:32:21;;;;;;;2.15;0.70;;;26.50;81.40;;;;;;5014025;28;20036;-78
2022/06/29 08:34:47;;;;;;;2.38;0.70;;;26.30;81.50;;;;;;5002987;28;20024;-79
2022/06/29 08:37:16;;;;;;;3.28;1.10;;;26.30;81.80;;;;;;5026082;28;20040;-79
2022/06/29 08:39:43;;;;;;;2.10;0.82;;;26.50;81.50;;;;;;4996822;28;20503;-78
2022/06/29 08:42:11;;;;;;;2.95;0.90;;;26.60;81.00;;;;;;5034679;28;20025;-78
2022/06/29 08:44:40;;;;;;;2.38;0.70;;;26.70;80.80;;;;;;5031121;28;20041;-78
2022/06/29 08:47:10;;;;;;;2.25;0.70;;;26.70;80.80;;;;;;5015075;28;20037;-78
2022/06/29 08:49:39;;;;;;;1.98;0.60;;;26.70;81.00;;;;;;5005014;28;20040;-78
2022/06/29 08:52:08;;;;;;;2.75;0.50;;;26.90;81.20;;;;;;4999293;28;20025;-77
2022/06/29 08:54:42;;;;;;;1.92;0.70;;;27.20;81.10;;;;;;5000599;28;20029;-78
2022/06/29 08:57:09;;;;;;;2.83;0.90;;;27.50;80.10;;;;;;5011426;28;20466;-77
2022/06/29 08:59:36;;;;;;;1.80;0.63;;;27.60;79.40;;;;;;5012663;28;20075;-78
2022/06/29 09:02:03;;;;;;;1.98;0.68;;;27.70;79.30;;;;;;5021350;28;20922;-78
2022/06/29 09:04:29;;;;;;;3.17;0.88;;;27.90;79.10;;;;;;5003075;28;20047;-78
2022/06/29 09:06:57;;;;;;;2.78;0.70;;;28.00;78.50;;;;;;5003069;28;20056;-78
2022/06/29 09:09:24;;;;;;;2.28;0.73;;;28.10;77.40;;;;;;5000422;28;20044;-78
2022/06/29 09:11:52;;;;;;;1.98;0.70;;;28.10;76.60;;;;;;5018705;28;20036;-78
2022/06/29 09:14:27;;;;;;;1.15;0.50;;;28.20;76.00;;;;;;5019220;28;20383;-78
2022/06/29 09:16:59;;;;;;;2.30;0.85;;;28.40;76.40;;;;;;5017614;28;20055;-78
2022/06/29 09:19:46;;;;;;;1.73;0.45;;;28.50;75.80;;;;;;5016293;28;20496;-79
2022/06/29 09:22:14;;;;;;;2.08;0.50;;;28.70;75.10;;;;;;5019943;28;20263;-78
2022/06/29 09:24:41;;;;;;;2.30;0.50;;;28.80;73.90;;;;;;5037501;28;20033;-78
2022/06/29 09:27:09;;;;;;;1.35;0.50;;;28.90;73.50;;;;;;5005291;28;20033;-78
2022/06/29 09:29:41;;;;;;;1.42;0.52;;;29.10;73.80;;;;;;5015309;28;20503;-79
2022/06/29 09:32:10;;;;;;;2.13;0.47;;;29.20;71.80;;;;;;5018445;28;20024;-78
2022/06/29 09:34:50;;;;;;;1.25;0.40;;;29.30;71.20;;;;;;5001330;28;20025;-79
2022/06/29 09:37:23;;;;;;;4.18;0.63;;;29.50;70.40;;;;;;5034415;28;20056;-78
2022/06/29 09:39:51;;;;;;;0.90;0.30;;;29.70;69.50;;;;;;5031813;28;20593;-79
2022/06/29 09:42:18;;;;;;;1.10;0.40;;;29.80;69.30;;;;;;5018056;28;20051;-78
2022/06/29 09:44:45;;;;;;;1.10;0.35;;;30.00;68.30;;;;;;5034428;28;21047;-78
2022/06/29 09:47:17;;;;;;;1.38;0.40;;;30.10;67.00;;;;;;4985166;28;20071;-79
2022/06/29 09:49:54;;;;;;;3.20;0.40;;;30.20;67.00;;;;;;4999195;28;20373;-78
2022/06/29 09:52:20;;;;;;;2.25;0.60;;;30.20;66.20;;;;;;5049158;28;20029;-79
2022/06/29 09:54:57;;;;;;;0.90;0.30;;;30.20;65.30;;;;;;5001734;28;20469;-79
2022/06/29 09:57:27;;;;;;;1.13;0.38;;;30.40;65.20;;;;;;5017978;28;20045;-79
2022/06/29 10:02:48;;;;;;;1.23;0.40;;;30.60;64.20;;;;;;5035290;28;20385;-79
2022/06/29 10:05:17;;;;;;;0.90;0.40;;;30.60;62.80;;;;;;5002465;28;20029;-79
2022/06/29 10:07:46;;;;;;;4.40;0.40;;;30.70;62.60;;;;;;5034626;28;20016;-79
2022/06/29 10:10:19;;;;;;;1.58;0.40;;;30.90;62.70;;;;;;5013118;28;20033;-79
2022/06/29 10:15:56;;;;;;;1.30;0.40;;;31.40;61.00;;;;;;5018178;28;20052;-80
2022/06/29 10:18:46;;;;;;;1.25;0.40;;;31.50;60.90;;;;;;5039335;28;20040;-80
2022/06/29 10:21:25;;;;;;;1.40;0.30;;;31.30;59.70;;;;;;5021553;28;20032;-80
2022/06/29 10:23:56;;;;;;;1.48;0.40;;;31.10;58.30;;;;;;5045688;28;20025;-80
2022/06/29 10:26:46;;;;;;;1.15;0.30;;;30.80;58.00;;;;;;5025974;28;20221;-79
2022/06/29 10:29:19;;;;;;;0.80;0.32;;;30.60;58.60;;;;;;5006189;28;20033;-79
2022/06/29 10:31:56;;;;;;;1.33;0.40;;;30.70;59.30;;;;;;5026106;28;20142;-80
2022/06/29 10:34:37;;;;;;;2.38;0.30;;;30.90;59.30;;;;;;5006956;28;20037;-79
2022/06/29 10:37:15;;;;;;;0.70;0.30;;;31.10;58.90;;;;;;5007846;28;20052;-79
2022/06/29 10:39:50;;;;;;;1.63;0.30;;;31.30;58.30;;;;;;5021190;28;20777;-80
2022/06/29 10:45:54;;;;;;;1.20;0.40;;;31.40;58.50;;;;;;5042172;28;20025;-79
2022/06/29 10:48:20;;;;;;;1.02;0.30;;;31.60;58.50;;;;;;4983913;28;20025;-80
2022/06/29 10:50:48;;;;;;;1.80;0.88;;;31.80;58.10;;;;;;4965004;28;20059;-81
2022/06/29 10:53:17;;;;;;;2.28;0.60;;;32.10;57.30;;;;;;5015138;28;20392;-81
2022/06/29 10:55:52;;;;;;;1.25;0.60;;;32.60;56.80;;;;;;5025106;28;20041;-80
2022/06/29 10:58:20;;;;;;;1.73;0.30;;;33.20;56.20;;;;;;5041330;28;20028;-81
2022/06/29 11:00:51;;;;;;;1.65;0.30;;;33.70;56.00;;;;;;5020737;28;20044;-80
2022/06/29 11:03:23;;;;;;;0.85;0.40;;;33.90;55.00;;;;;;5024130;28;20013;-80
2022/06/29 11:17:39;;;;;;;2.55;0.30;;;34.20;51.40;;;;;;5013330;28;20032;-80
2022/06/29 11:19:58;;;;;;;0.85;0.30;;;34.40;50.00;;;;;;5006497;28;20033;-79
2022/06/29 11:22:24;;;;;;;1.75;0.38;;;34.40;49.30;;;;;;5026044;28;20045;-80
2022/06/29 11:24:57;;;;;;;2.15;0.30;;;34.50;49.30;;;;;;5023660;28;20041;-80
2022/06/29 11:27:40;;;;;;;1.90;0.52;;;34.70;49.00;;;;;;5054786;28;20028;-81
2022/06/29 11:30:09;;;;;;;1.00;0.30;;;34.90;48.10;;;;;;5035986;28;20444;-80
2022/06/29 11:32:46;;;;;;;0.68;0.30;;;35.10;47.80;;;;;;5006320;28;20029;-80
2022/06/29 11:35:15;;;;;;;0.88;0.30;;;35.40;47.70;;;;;;5005657;28;20028;-80
2022/06/29 11:38:01;;;;;;;2.45;0.63;;;35.60;47.30;;;;;;5004736;28;20041;-82
2022/06/29 11:40:38;;;;;;;0.40;0.30;;;35.80;47.10;;;;;;5018992;28;20041;-80
2022/06/29 11:43:06;;;;;;;1.92;0.30;;;36.00;46.80;;;;;;5036676;28;20021;-80
2022/06/29 11:45:44;;;;;;;1.60;0.30;;;36.20;46.30;;;;;;5023584;28;20037;-80
2022/06/29 11:48:19;;;;;;;0.77;0.40;;;36.40;45.90;;;;;;5007926;28;20044;-78
2022/06/29 11:50:57;;;;;;;1.20;0.30;;;36.50;45.90;;;;;;5034804;28;20025;-77
2022/06/29 11:53:47;;;;;;;0.77;0.20;;;36.70;44.90;;;;;;5004580;28;20045;-80
2022/06/29 11:56:19;;;;;;;0.68;0.40;;;36.90;45.20;;;;;;5018353;28;20049;-80
2022/06/29 11:58:50;;;;;;;1.52;0.40;;;37.20;44.70;;;;;;5025909;28;20036;-80
2022/06/29 12:01:21;;;;;;;3.30;0.30;;;37.60;43.70;;;;;;5019931;28;20021;-80
2022/06/29 12:03:54;;;;;;;1.02;0.30;;;37.80;43.10;;;;;;5021094;28;20384;-81
2022/06/29 12:06:23;;;;;;;1.00;0.30;;;38.00;42.70;;;;;;5008493;28;20033;-80
2022/06/29 12:08:51;;;;;;;1.13;0.50;;;38.10;42.40;;;;;;5021015;28;20028;-80
2022/06/29 12:11:18;;;;;;;0.43;0.30;;;38.10;42.60;;;;;;5007720;28;20068;-79
2022/06/29 12:13:46;;;;;;;1.52;0.40;;;38.40;42.00;;;;;;5038668;28;20496;-80
2022/06/29 12:16:13;;;;;;;1.58;0.40;;;38.60;41.60;;;;;;5005976;28;20029;-80
2022/06/29 12:18:39;;;;;;;1.13;0.50;;;38.20;41.30;;;;;;5006765;28;20354;-80
2022/06/29 12:21:07;;;;;;;2.00;0.40;;;37.90;42.20;;;;;;5006003;28;20021;-81
2022/06/29 12:23:34;;;;;;;1.85;0.40;;;37.60;41.80;;;;;;5009028;28;20384;-81
2022/06/29 12:26:01;;;;;;;1.52;0.40;;;37.10;42.50;;;;;;5022594;28;20872;-81
2022/06/29 12:28:28;;;;;;;0.63;0.30;;;36.70;42.80;;;;;;5041648;28;20033;-80
2022/06/29 12:30:54;;;;;;;2.25;0.30;;;36.50;43.60;;;;;;5035898;28;20072;-81
2022/06/29 12:33:21;;;;;;;0.70;0.30;;;37.20;42.70;;;;;;5005404;28;20043;-81
2022/06/29 12:35:49;;;;;;;1.02;0.30;;;38.00;42.00;;;;;;5021442;28;20036;-80
2022/06/29 12:38:16;;;;;;;0.70;0.30;;;38.90;41.60;;;;;;5025477;28;20642;-81
2022/06/29 12:40:46;;;;;;;1.05;0.30;;;39.10;41.10;;;;;;5039582;28;20040;-82
2022/06/29 12:43:17;;;;;;;1.33;0.30;;;39.40;41.10;;;;;;5041173;28;20029;-81
2022/06/29 12:45:45;;;;;;;2.47;0.50;;;39.00;41.30;;;;;;5027300;28;20039;-81
2022/06/29 12:48:24;;;;;;;1.05;0.40;;;38.30;41.50;;;;;;5012325;28;20037;-81
2022/06/29 12:50:50;;;;;;;2.28;0.40;;;37.90;41.90;;;;;;4994081;28;20364;-82
2022/06/29 12:53:17;;;;;;;2.67;0.40;;;38.10;42.80;;;;;;5041911;28;20026;-82
2022/06/29 12:55:44;;;;;;;1.52;0.40;;;38.40;42.40;;;;;;5011595;28;20043;-81
2022/06/29 12:58:11;;;;;;;1.25;0.40;;;38.20;42.60;;;;;;5007659;28;20040;-81
2022/06/29 13:00:37;;;;;;;1.30;0.50;;;37.70;42.20;;;;;;5003483;28;20615;-82
2022/06/29 13:03:04;;;;;;;1.25;0.50;;;37.30;42.40;;;;;;5005664;28;20040;-81
2022/06/29 13:05:31;;;;;;;0.75;0.40;;;36.70;42.60;;;;;;5041166;28;20032;-82
2022/06/29 13:07:57;;;;;;;0.93;0.40;;;36.10;43.30;;;;;;5047170;28;20036;-82
2022/06/29 13:10:24;;;;;;;2.67;0.40;;;35.70;43.80;;;;;;4990081;28;20448;-82
2022/06/29 13:12:50;;;;;;;1.55;0.40;;;35.50;43.80;;;;;;5010721;28;20040;-83
2022/06/29 13:15:17;;;;;;;1.77;0.50;;;36.10;44.30;;;;;;5008262;28;20033;-83
2022/06/29 13:17:43;;;;;;;1.50;0.40;;;37.50;42.80;;;;;;5008931;28;20029;-83
2022/06/29 13:20:12;;;;;;;2.55;0.43;;;38.90;41.80;;;;;;5008417;28;20353;-83